Time;durP1;ratioP1;P1;durP2;ratioP2;P2;SDS_P1;SDS_P2;PMS_P1;PMS_P2;Temp;Humidity;BMP_temperature;BMP_pressure;BME280_temperature;BME280_humidity;BME280_pressure;Samples;Min_cycle;Max_cycle;Signal;HPM_P1;HPM_P2
2021/05/24 00:00:30;;;;;;;3.17;1.52;;;;;;;10.16;67.32;100924.67;1688424;85;21106;-69
2021/05/24 00:02:58;;;;;;;2.35;1.75;;;;;;;10.17;67.32;100928.98;1688377;83;21081;-70
2021/05/24 00:05:28;;;;;;;2.72;1.30;;;;;;;10.19;67.30;100934.17;1688416;85;21076;-69
2021/05/24 00:07:54;;;;;;;2.92;1.65;;;;;;;10.18;67.29;100928.00;1688306;85;21101;-69
2021/05/24 00:10:24;;;;;;;6.70;1.25;;;;;;;10.20;67.28;100930.53;1688501;85;21603;-69
2021/05/24 00:12:51;;;;;;;3.75;1.20;;;;;;;10.20;67.29;100924.70;1687919;85;21037;-69
2021/05/24 00:15:23;;;;;;;3.20;1.40;;;;;;;10.22;67.29;100928.05;1688620;85;21078;-69
2021/05/24 00:17:50;;;;;;;2.25;1.22;;;;;;;10.23;67.28;100932.88;1688506;85;21666;-70
2021/05/24 00:20:17;;;;;;;2.98;1.20;;;;;;;10.22;67.29;100932.53;1688209;85;21133;-69
2021/05/24 00:22:43;;;;;;;5.70;1.40;;;;;;;10.20;67.29;100932.70;1688562;85;21573;-69
2021/05/24 00:25:09;;;;;;;2.08;1.20;;;;;;;10.20;67.33;100929.20;1688163;85;21053;-69
2021/05/24 00:27:35;;;;;;;2.42;1.10;;;;;;;10.16;67.33;100928.67;1688503;85;21108;-70
2021/05/24 00:30:02;;;;;;;4.25;1.45;;;;;;;10.12;67.39;100925.94;1688403;85;21752;-69
2021/05/24 00:32:28;;;;;;;2.40;1.12;;;;;;;10.12;67.45;100923.76;1688471;85;21085;-69
2021/05/24 00:34:54;;;;;;;3.20;1.47;;;;;;;10.10;67.49;100925.23;1688586;85;21561;-69
2021/05/24 00:37:20;;;;;;;2.40;1.40;;;;;;;10.10;67.51;100935.89;1688251;85;20931;-69
2021/05/24 00:39:46;;;;;;;2.02;1.30;;;;;;;10.07;67.56;100930.88;1687388;85;21065;-69
2021/05/24 00:42:13;;;;;;;3.55;2.15;;;;;;;10.09;67.62;100935.57;1688092;85;21156;-69
2021/05/24 00:44:39;;;;;;;4.80;2.02;;;;;;;10.11;67.68;100931.41;1688512;85;21053;-70
2021/05/24 00:47:05;;;;;;;2.62;1.52;;;;;;;10.11;67.74;100930.91;1688384;85;21061;-69
2021/05/24 00:49:31;;;;;;;4.70;1.92;;;;;;;10.15;67.89;100924.32;1679292;83;20901;-70
2021/05/24 00:51:57;;;;;;;7.10;2.00;;;;;;;10.15;67.89;100924.32;1670356;85;20901;-69
2021/05/24 00:54:24;;;;;;;2.40;1.62;;;;;;;10.16;67.87;100928.67;1670222;85;21170;-70
2021/05/24 00:56:50;;;;;;;3.02;1.30;;;;;;;10.15;67.92;100929.66;1670168;85;21572;-70
2021/05/24 00:59:16;;;;;;;3.20;1.40;;;;;;;10.15;67.97;100924.81;1670302;85;21048;-69
2021/05/24 01:01:42;;;;;;;2.45;1.02;;;;;;;10.13;68.03;100916.95;1670461;85;20996;-70
2021/05/24 01:04:11;;;;;;;2.52;1.37;;;;;;;10.11;68.08;100915.41;1670129;85;21036;-70
2021/05/24 01:06:37;;;;;;;1.77;1.10;;;;;;;10.07;68.14;100914.88;1670558;85;21570;-69
2021/05/24 01:09:04;;;;;;;4.25;1.30;;;;;;;10.02;68.17;100909.20;1669824;85;20893;-70
2021/05/24 01:11:30;;;;;;;3.52;1.35;;;;;;;9.98;68.23;100910.48;1670272;85;21048;-69
2021/05/24 01:13:56;;;;;;;2.05;1.32;;;;;;;9.92;68.30;100916.44;1670056;85;20901;-69
2021/05/24 01:16:22;;;;;;;7.75;1.50;;;;;;;9.84;68.30;100915.02;1670353;85;21047;-70
2021/05/24 01:18:48;;;;;;;3.52;1.47;;;;;;;9.76;68.39;100924.27;1670411;85;21155;-69
2021/05/24 01:21:14;;;;;;;2.83;1.60;;;;;;;9.66;68.49;100915.51;1670232;85;21091;-70
2021/05/24 01:23:43;;;;;;;3.45;1.27;;;;;;;9.62;68.57;100911.47;1645027;85;21072;-69
2021/05/24 01:26:09;;;;;;;4.70;2.05;;;;;;;9.53;68.66;100914.04;1669277;85;21568;-69
2021/05/24 01:28:35;;;;;;;4.33;1.60;;;;;;;9.50;68.71;100912.17;1670204;85;20881;-69
2021/05/24 01:31:01;;;;;;;4.67;1.82;;;;;;;9.45;68.79;100908.66;1670324;85;21757;-70
2021/05/24 01:33:27;;;;;;;6.45;1.70;;;;;;;9.43;68.84;100910.61;1669929;85;21135;-69
2021/05/24 01:35:53;;;;;;;3.60;1.47;;;;;;;9.38;68.92;100904.91;1669697;85;21493;-69
2021/05/24 01:38:21;;;;;;;2.77;1.47;;;;;;;9.35;68.99;100905.22;1644924;85;20964;-70
2021/05/24 01:40:47;;;;;;;3.15;1.45;;;;;;;9.27;69.08;100907.78;1670448;85;21089;-69
2021/05/24 01:43:15;;;;;;;5.00;1.72;;;;;;;9.24;69.17;100909.41;1670149;85;21121;-69
2021/05/24 01:45:42;;;;;;;3.40;1.72;;;;;;;9.20;69.24;100905.37;1670401;85;21579;-69
2021/05/24 01:48:08;;;;;;;2.83;1.32;;;;;;;9.16;69.34;100911.97;1669944;85;21063;-69
2021/05/24 01:50:35;;;;;;;4.78;1.90;;;;;;;9.13;69.39;100906.95;1691120;83;21121;-69
2021/05/24 01:53:01;;;;;;;4.25;1.87;;;;;;;9.11;69.49;100904.09;1696895;84;21041;-69
2021/05/24 01:55:27;;;;;;;5.15;1.72;;;;;;;9.09;69.56;100902.06;1696800;84;21113;-69
2021/05/24 01:57:54;;;;;;;2.72;1.87;;;;;;;9.08;69.63;100899.08;1697085;84;21547;-69
2021/05/24 02:00:21;;;;;;;4.72;2.30;;;;;;;9.06;69.69;100901.03;1697008;84;21089;-69
2021/05/24 02:02:48;;;;;;;3.75;1.87;;;;;;;9.04;69.81;100901.20;1697022;83;21097;-69
2021/05/24 02:05:15;;;;;;;10.15;4.90;;;;;;;9.02;69.91;100894.68;1697033;84;21652;-70
2021/05/24 02:07:41;;;;;;;8.83;5.55;;;;;;;8.97;70.00;100892.94;1696810;84;21182;-69
2021/05/24 02:10:09;;;;;;;4.75;2.45;;;;;;;8.94;70.06;100891.06;1696833;84;21570;-69
2021/05/24 02:12:35;;;;;;;5.85;3.15;;;;;;;8.89;70.16;100899.51;1696804;84;21064;-69
2021/05/24 02:15:01;;;;;;;10.30;4.65;;;;;;;8.89;70.26;100897.34;1697090;84;21052;-69
2021/05/24 02:17:27;;;;;;;11.08;4.85;;;;;;;8.85;70.33;100887.97;1697188;84;21718;-69
2021/05/24 02:19:53;;;;;;;42.98;16.10;;;;;;;8.80;70.44;100890.22;1697135;83;21097;-69
2021/05/24 02:22:19;;;;;;;26.97;10.90;;;;;;;8.75;70.52;100889.84;1696697;84;21870;-69
2021/05/24 02:24:45;;;;;;;25.57;11.03;;;;;;;8.68;70.61;100891.41;1696855;84;20918;-69
2021/05/24 02:27:11;;;;;;;34.90;18.05;;;;;;;8.65;70.68;100895.69;1697009;84;20960;-69
2021/05/24 02:29:37;;;;;;;23.95;13.65;;;;;;;8.60;70.77;100899.26;1697023;84;20922;-69
2021/05/24 02:32:04;;;;;;;20.23;12.15;;;;;;;8.57;70.84;100902.21;1697015;84;21183;-69
2021/05/24 02:34:31;;;;;;;18.95;11.68;;;;;;;8.51;70.89;100901.80;1696306;84;21124;-69
2021/05/24 02:36:57;;;;;;;16.65;8.68;;;;;;;8.49;70.99;100906.43;1696166;84;21041;-69
2021/05/24 02:39:23;;;;;;;30.00;11.85;;;;;;;8.43;71.07;100901.70;1696792;83;21057;-69
2021/05/24 02:41:49;;;;;;;9.83;5.67;;;;;;;8.26;71.40;100898.42;1697161;84;20996;-69
2021/05/24 02:44:15;;;;;;;6.58;3.83;;;;;;;8.26;71.40;100898.42;1697054;84;21750;-69
2021/05/24 02:46:41;;;;;;;6.85;3.17;;;;;;;8.24;71.33;100904.83;1696731;84;21144;-69
2021/05/24 02:49:07;;;;;;;8.00;3.85;;;;;;;8.23;71.42;100904.51;1696422;84;20898;-69
2021/05/24 02:51:34;;;;;;;14.38;7.35;;;;;;;8.25;71.51;100904.70;1688225;85;22268;-70
2021/05/24 02:54:00;;;;;;;12.63;5.65;;;;;;;8.22;71.59;100901.01;1688522;85;21037;-69
2021/05/24 02:56:26;;;;;;;13.20;6.22;;;;;;;8.19;71.68;100898.64;1688419;85;21089;-69
2021/05/24 02:58:52;;;;;;;12.50;7.28;;;;;;;8.16;71.80;100903.40;1674481;85;21633;-69
2021/05/24 03:01:19;;;;;;;4.95;3.27;;;;;;;8.15;71.93;100897.73;1688353;83;20958;-69
2021/05/24 03:03:45;;;;;;;5.15;3.00;;;;;;;8.13;72.03;100896.53;1688592;85;21042;-69
2021/05/24 03:06:11;;;;;;;4.95;3.15;;;;;;;8.15;72.16;100892.42;1688655;85;21038;-70
2021/05/24 03:08:37;;;;;;;5.08;2.80;;;;;;;8.13;72.24;100894.39;1688442;85;21037;-69
2021/05/24 03:11:03;;;;;;;4.47;2.85;;;;;;;8.13;72.35;100891.73;1688565;85;21553;-69
2021/05/24 03:13:29;;;;;;;7.00;2.90;;;;;;;8.17;72.44;100895.27;1688620;85;21025;-69
2021/05/24 03:15:56;;;;;;;8.40;3.95;;;;;;;8.20;72.53;100889.67;1688529;85;20930;-69
2021/05/24 03:18:22;;;;;;;7.60;4.33;;;;;;;8.20;72.58;100891.52;1688260;85;21573;-69
2021/05/24 03:20:48;;;;;;;13.13;5.75;;;;;;;8.20;72.65;100891.00;1688752;85;21637;-69
2021/05/24 03:23:14;;;;;;;10.32;5.62;;;;;;;8.26;72.73;100891.78;1688125;85;20883;-69
2021/05/24 03:25:40;;;;;;;11.40;6.05;;;;;;;8.31;72.78;100893.53;1688476;85;21588;-69
2021/05/24 03:28:06;;;;;;;12.63;5.80;;;;;;;8.35;72.83;100890.94;1688516;85;20910;-69
2021/05/24 03:30:32;;;;;;;6.83;4.33;;;;;;;8.43;72.94;100888.41;1688536;85;21021;-69
2021/05/24 03:32:58;;;;;;;4.70;3.00;;;;;;;8.56;73.04;100892.06;1688542;85;21523;-69
2021/05/24 03:35:24;;;;;;;6.37;2.90;;;;;;;9.00;73.29;100882.52;1688462;85;21625;-70
2021/05/24 03:37:50;;;;;;;5.65;3.83;;;;;;;9.68;73.43;100878.41;1688263;85;21640;-70
2021/05/24 03:40:17;;;;;;;13.32;6.08;;;;;;;10.77;73.57;100876.55;1688277;85;21033;-70
2021/05/24 03:42:43;;;;;;;7.33;3.85;;;;;;;11.79;73.23;100881.70;1688429;85;21108;-70
2021/05/24 03:45:16;;;;;;;6.80;3.67;;;;;;;12.66;72.82;100878.30;1688648;85;21620;-70
2021/05/24 03:47:43;;;;;;;7.30;3.15;;;;;;;13.57;72.32;100873.22;1688268;84;21044;-70
2021/05/24 03:50:11;;;;;;;7.08;3.30;;;;;;;14.49;71.64;100876.46;1687888;83;21024;-70
2021/05/24 03:52:37;;;;;;;4.50;2.98;;;;;;;15.29;70.96;100877.03;1710323;83;21056;-70
2021/05/24 03:55:04;;;;;;;6.12;3.20;;;;;;;15.96;70.21;100870.34;1710542;83;20964;-70
2021/05/24 03:57:31;;;;;;;7.30;3.77;;;;;;;16.65;69.43;100865.59;1685949;83;21604;-70
2021/05/24 03:59:57;;;;;;;5.62;4.10;;;;;;;17.20;68.63;100870.87;1693963;83;21643;-71
2021/05/24 04:02:23;;;;;;;2.98;1.87;;;;;;;17.47;67.71;100871.27;1698619;82;21000;-70
2021/05/24 04:04:49;;;;;;;3.52;1.95;;;;;;;17.62;66.80;100871.65;1696832;83;20960;-71
2021/05/24 04:07:22;;;;;;;3.08;1.90;;;;;;;18.16;66.09;100878.23;1685864;85;21120;-70
2021/05/24 04:09:43;;;;;;;2.67;2.30;;;;;;;18.38;65.12;100879.69;1689632;83;21162;-71
2021/05/24 04:12:09;;;;;;;4.10;2.90;;;;;;;18.69;64.22;100888.51;1698629;83;20933;-71
2021/05/24 04:14:36;;;;;;;5.42;3.52;;;;;;;18.79;62.87;100884.84;1687746;83;21040;-71
2021/05/24 04:17:02;;;;;;;6.78;3.27;;;;;;;19.01;62.35;100884.06;1690918;83;21107;-71
2021/05/24 04:19:28;;;;;;;6.00;3.10;;;;;;;19.03;61.44;100882.83;1705794;83;20917;-71
2021/05/24 04:21:54;;;;;;;4.60;2.05;;;;;;;19.51;60.31;100898.66;1690372;83;21104;-70
2021/05/24 04:24:20;;;;;;;4.00;2.60;;;;;;;19.75;59.24;100897.89;1694542;83;21039;-70
2021/05/24 04:26:46;;;;;;;5.53;2.70;;;;;;;19.81;58.46;100897.85;1685942;85;21583;-71
2021/05/24 04:29:12;;;;;;;4.35;2.37;;;;;;;19.80;57.64;100897.57;1691619;83;20897;-71
2021/05/24 04:31:38;;;;;;;6.70;2.58;;;;;;;19.54;56.51;100907.69;1689402;83;22116;-71
2021/05/24 04:34:06;;;;;;;4.83;2.85;;;;;;;19.46;55.53;100910.67;1702485;83;21119;-71
2021/05/24 04:36:32;;;;;;;5.95;3.67;;;;;;;19.06;55.23;100904.55;1714568;83;21095;-71
2021/05/24 04:38:58;;;;;;;9.48;4.53;;;;;;;18.68;55.43;100909.84;1699193;83;21587;-71
2021/05/24 04:41:24;;;;;;;9.45;5.37;;;;;;;18.34;55.69;100910.84;1698662;83;20909;-71
2021/05/24 04:43:55;;;;;;;6.72;4.17;;;;;;;18.02;55.81;100911.14;1699635;83;21721;-71
2021/05/24 04:46:18;;;;;;;9.63;4.67;;;;;;;17.69;55.73;100907.56;1708213;83;21168;-71
2021/05/24 04:48:44;;;;;;;6.47;3.85;;;;;;;17.52;55.76;100906.24;1707758;83;21053;-71
2021/05/24 04:51:10;;;;;;;7.05;4.05;;;;;;;17.48;55.82;100907.16;1679577;82;21086;-71
2021/05/24 04:53:36;;;;;;;7.65;3.55;;;;;;;17.59;55.80;100899.03;1669879;85;20897;-71
2021/05/24 04:56:02;;;;;;;8.70;5.20;;;;;;;17.61;55.63;100903.69;1669779;85;21806;-71
2021/05/24 04:58:28;;;;;;;5.50;3.52;;;;;;;17.46;55.43;100901.95;1670017;85;21156;-71
2021/05/24 05:00:54;;;;;;;7.03;3.47;;;;;;;17.22;55.32;100902.48;1670712;84;20980;-70
2021/05/24 05:03:20;;;;;;;4.87;3.02;;;;;;;17.16;55.29;100908.69;1670038;85;20990;-70
2021/05/24 05:05:46;;;;;;;5.37;3.62;;;;;;;17.38;55.22;100908.06;1670018;85;20972;-70
2021/05/24 05:08:15;;;;;;;5.00;3.15;;;;;;;17.19;54.96;100904.24;1670210;85;21677;-70
2021/05/24 05:10:41;;;;;;;5.12;3.05;;;;;;;17.21;54.80;100906.20;1664730;85;21603;-70
2021/05/24 05:13:09;;;;;;;5.22;2.72;;;;;;;17.33;54.69;100911.87;1670129;85;20881;-70
2021/05/24 05:15:35;;;;;;;11.18;6.58;;;;;;;17.37;54.55;100922.05;1670213;85;21086;-70
2021/05/24 05:18:01;;;;;;;5.28;2.80;;;;;;;17.52;54.54;100916.52;1669837;85;20988;-70
2021/05/24 05:20:28;;;;;;;8.20;2.35;;;;;;;17.44;54.20;100924.27;1670335;85;20905;-70
2021/05/24 05:22:54;;;;;;;5.00;2.45;;;;;;;17.16;54.03;100919.98;1669388;85;21652;-70
2021/05/24 05:25:20;;;;;;;3.47;2.47;;;;;;;17.11;53.99;100921.92;1670270;85;20933;-70
2021/05/24 05:27:46;;;;;;;4.28;2.37;;;;;;;17.13;53.87;100918.53;1670010;85;21075;-70
2021/05/24 05:30:13;;;;;;;3.95;2.40;;;;;;;17.23;53.86;100920.34;1670513;85;20968;-70
2021/05/24 05:32:39;;;;;;;5.67;2.20;;;;;;;17.35;53.79;100924.11;1670244;85;21673;-70
2021/05/24 05:35:06;;;;;;;6.90;2.67;;;;;;;17.52;53.69;100919.73;1670316;85;21111;-70
2021/05/24 05:37:32;;;;;;;5.42;2.72;;;;;;;17.62;53.65;100916.16;1670269;85;21048;-70
2021/05/24 05:39:58;;;;;;;5.72;2.85;;;;;;;17.68;53.63;100926.13;1670414;85;21031;-71
2021/05/24 05:42:24;;;;;;;4.97;2.75;;;;;;;17.65;53.51;100924.67;1670049;85;21107;-71
2021/05/24 05:44:50;;;;;;;6.83;2.80;;;;;;;17.65;53.44;100930.58;1669889;85;20940;-70
2021/05/24 05:47:17;;;;;;;4.72;2.37;;;;;;;17.67;53.28;100932.55;1669874;85;21143;-70
2021/05/24 05:49:47;;;;;;;4.75;3.35;;;;;;;17.72;53.28;100927.39;1670206;85;21692;-71
2021/05/24 05:52:11;;;;;;;8.50;4.92;;;;;;;17.85;53.30;100938.20;1692743;83;21401;-71
2021/05/24 05:54:37;;;;;;;7.85;2.58;;;;;;;18.09;53.22;100947.07;1697103;84;20914;-70
2021/05/24 05:57:03;;;;;;;4.95;2.65;;;;;;;18.23;53.03;100948.75;1696989;84;21016;-71
2021/05/24 05:59:29;;;;;;;7.65;3.00;;;;;;;18.29;52.99;100945.25;1697064;84;21079;-70
2021/05/24 06:01:55;;;;;;;4.05;2.33;;;;;;;18.20;52.99;100937.02;1696997;83;21592;-70
2021/05/24 06:04:21;;;;;;;6.62;3.62;;;;;;;18.17;52.91;100940.65;1696964;84;20938;-71
2021/05/24 06:06:47;;;;;;;5.62;4.30;;;;;;;18.07;52.91;100945.11;1697125;84;21565;-71
2021/05/24 06:09:13;;;;;;;6.97;3.58;;;;;;;18.26;52.90;100948.33;1697024;84;20914;-70
2021/05/24 06:11:39;;;;;;;4.75;3.20;;;;;;;18.24;52.72;100939.63;1697049;84;21687;-70
2021/05/24 06:14:05;;;;;;;6.22;4.00;;;;;;;18.03;52.63;100937.10;1696872;84;20925;-71
2021/05/24 06:16:31;;;;;;;7.53;2.95;;;;;;;18.03;52.70;100943.02;1697044;84;21064;-71
2021/05/24 06:18:58;;;;;;;7.87;2.65;;;;;;;17.82;52.53;100935.41;1697039;83;21057;-70
2021/05/24 06:21:24;;;;;;;5.10;2.60;;;;;;;17.47;52.61;100944.59;1697085;84;21083;-70
2021/05/24 06:23:50;;;;;;;4.67;2.47;;;;;;;17.72;52.84;100930.08;1696703;84;21138;-71
2021/05/24 06:26:16;;;;;;;4.28;2.10;;;;;;;18.04;52.72;100944.17;1696999;84;20945;-70
2021/05/24 06:28:43;;;;;;;3.22;2.40;;;;;;;18.21;52.65;100942.73;1696780;84;20918;-71
2021/05/24 06:31:09;;;;;;;6.70;3.60;;;;;;;18.09;52.54;100947.07;1696928;84;21140;-70
2021/05/24 06:33:35;;;;;;;4.87;2.33;;;;;;;18.25;52.44;100944.51;1696727;84;20886;-70
2021/05/24 06:36:01;;;;;;;4.25;2.75;;;;;;;17.94;52.24;100947.80;1697116;84;21727;-70
2021/05/24 06:38:27;;;;;;;5.12;3.42;;;;;;;17.91;52.26;100944.96;1697023;84;21073;-71
2021/05/24 06:40:53;;;;;;;6.60;3.25;;;;;;;18.18;52.22;100952.61;1696991;84;20942;-70
2021/05/24 06:43:22;;;;;;;3.58;2.25;;;;;;;18.14;51.92;100947.30;1697145;84;20969;-70
2021/05/24 06:45:47;;;;;;;6.45;2.12;;;;;;;18.20;51.91;100947.81;1696980;84;21517;-70
2021/05/24 06:48:13;;;;;;;4.75;2.10;;;;;;;18.24;51.86;100940.97;1678613;84;21663;-71
2021/05/24 06:50:39;;;;;;;2.33;1.92;;;;;;;18.58;51.85;100945.91;1694679;83;20898;-71
2021/05/24 06:53:05;;;;;;;4.25;1.95;;;;;;;18.82;51.72;100942.55;1669952;85;21068;-70
2021/05/24 06:55:31;;;;;;;6.53;2.70;;;;;;;18.74;51.51;100948.17;1668998;85;20922;-70
2021/05/24 06:57:57;;;;;;;3.08;2.37;;;;;;;18.76;51.47;100944.72;1659859;86;20945;-70
2021/05/24 07:00:23;;;;;;;2.27;1.70;;;;;;;18.63;51.31;100950.98;1639726;86;21137;-70
2021/05/24 07:02:49;;;;;;;3.15;1.50;;;;;;;18.57;51.27;100950.47;1639547;86;20945;-70
2021/05/24 07:05:15;;;;;;;4.60;1.52;;;;;;;18.70;51.19;100938.81;1639343;86;21032;-70
2021/05/24 07:07:41;;;;;;;4.75;2.02;;;;;;;18.90;51.13;100935.03;1639551;87;21691;-70
2021/05/24 07:10:08;;;;;;;4.30;1.55;;;;;;;18.96;50.97;100938.23;1649029;85;21061;-70
2021/05/24 07:12:34;;;;;;;2.27;1.62;;;;;;;19.03;50.80;100944.17;1676002;85;21130;-70
2021/05/24 07:15:03;;;;;;;4.17;1.47;;;;;;;19.22;50.65;100946.81;1675833;85;21144;-70
2021/05/24 07:17:30;;;;;;;5.62;2.33;;;;;;;19.30;50.40;100945.75;1676007;85;21171;-70
2021/05/24 07:19:56;;;;;;;2.60;1.45;;;;;;;19.44;50.45;100945.52;1642872;87;21055;-70
2021/05/24 07:22:22;;;;;;;3.33;1.57;;;;;;;19.71;50.35;100946.73;1648593;87;21003;-70
2021/05/24 07:24:48;;;;;;;4.95;1.75;;;;;;;19.84;50.17;100937.22;1656667;85;21113;-70
2021/05/24 07:27:14;;;;;;;2.08;1.50;;;;;;;19.90;49.95;100930.92;1667834;85;21639;-70
2021/05/24 07:29:40;;;;;;;2.17;1.10;;;;;;;19.73;49.74;100923.01;1676876;85;20913;-71
2021/05/24 07:32:10;;;;;;;2.67;1.92;;;;;;;19.18;49.34;100919.88;1685264;84;21639;-70
2021/05/24 07:34:34;;;;;;;3.65;1.40;;;;;;;18.84;49.34;100921.02;1687556;84;21651;-70
2021/05/24 07:37:01;;;;;;;3.62;1.30;;;;;;;19.13;49.42;100922.41;1666178;84;21156;-70
2021/05/24 07:39:27;;;;;;;3.27;1.90;;;;;;;19.29;49.29;100923.28;1664983;85;21636;-70
2021/05/24 07:41:53;;;;;;;2.45;1.35;;;;;;;19.23;49.18;100921.44;1670285;85;21028;-70
2021/05/24 07:44:19;;;;;;;2.58;1.90;;;;;;;18.99;48.99;100915.89;1664892;85;20973;-70
2021/05/24 07:46:45;;;;;;;2.75;1.57;;;;;;;18.69;48.88;100925.81;1671954;85;21684;-70
2021/05/24 07:49:11;;;;;;;10.43;1.57;;;;;;;18.52;48.81;100925.11;1666717;85;21077;-71
2021/05/24 07:51:37;;;;;;;4.40;1.98;;;;;;;18.45;48.84;100924.56;1672755;83;21017;-71
2021/05/24 07:54:04;;;;;;;1.95;1.47;;;;;;;18.46;48.77;100932.98;1668368;84;21020;-71
2021/05/24 07:56:30;;;;;;;2.50;1.22;;;;;;;18.57;48.75;100933.43;1666130;85;21104;-70
2021/05/24 07:58:56;;;;;;;1.98;1.42;;;;;;;18.62;48.63;100918.75;1661294;85;21058;-71
2021/05/24 08:01:22;;;;;;;2.30;1.80;;;;;;;18.58;48.60;100913.48;1674495;85;21116;-70
2021/05/24 08:03:48;;;;;;;7.42;2.20;;;;;;;18.70;48.66;100917.20;1664839;85;20922;-71
2021/05/24 08:06:14;;;;;;;5.33;1.95;;;;;;;18.64;48.56;100918.05;1664524;85;21052;-71
2021/05/24 08:08:41;;;;;;;3.67;2.00;;;;;;;18.44;48.33;100905.34;1667195;85;21113;-71
2021/05/24 08:11:07;;;;;;;4.60;1.77;;;;;;;18.46;48.34;100895.17;1660845;85;21093;-71
2021/05/24 08:13:33;;;;;;;2.58;1.40;;;;;;;18.56;48.35;100902.88;1664701;86;21106;-70
2021/05/24 08:15:59;;;;;;;1.85;1.00;;;;;;;18.77;48.30;100895.88;1659718;85;21987;-71
2021/05/24 08:18:25;;;;;;;4.25;1.12;;;;;;;18.96;48.12;100892.83;1661993;85;21022;-71
2021/05/24 08:20:51;;;;;;;4.03;2.02;;;;;;;19.13;48.13;100885.07;1662168;84;21734;-70
2021/05/24 08:23:17;;;;;;;4.35;2.47;;;;;;;19.20;48.04;100894.83;1660259;85;21167;-70
2021/05/24 08:25:43;;;;;;;7.47;3.87;;;;;;;19.30;48.13;100897.90;1662687;85;21755;-70
2021/05/24 08:28:09;;;;;;;3.98;1.70;;;;;;;19.12;47.96;100895.05;1662830;85;20918;-70
2021/05/24 08:30:35;;;;;;;6.75;3.33;;;;;;;18.96;47.97;100891.48;1666156;85;20910;-70
2021/05/24 08:33:01;;;;;;;12.43;6.72;;;;;;;18.74;47.92;100900.36;1668831;85;20993;-70
2021/05/24 08:35:27;;;;;;;4.83;1.72;;;;;;;18.71;48.01;100910.77;1670866;85;21662;-70
2021/05/24 08:37:53;;;;;;;2.40;1.17;;;;;;;18.61;47.97;100900.39;1663853;85;21143;-70
2021/05/24 08:40:19;;;;;;;9.50;4.60;;;;;;;18.71;48.02;100902.14;1661915;85;20988;-70
2021/05/24 08:42:46;;;;;;;3.45;1.55;;;;;;;18.56;47.89;100902.05;1670424;85;21081;-70
2021/05/24 08:45:13;;;;;;;2.92;1.67;;;;;;;18.52;47.97;100896.74;1665853;85;21104;-70
2021/05/24 08:47:39;;;;;;;10.82;5.00;;;;;;;18.47;48.04;100894.11;1656016;85;21080;-70
2021/05/24 08:50:06;;;;;;;2.47;1.50;;;;;;;18.46;48.02;100891.13;1658186;85;21077;-70
2021/05/24 08:52:32;;;;;;;5.85;2.45;;;;;;;18.42;48.06;100887.69;1683548;83;21602;-70
2021/05/24 08:54:58;;;;;;;5.03;2.58;;;;;;;18.61;48.22;100883.34;1687483;83;21663;-70
2021/05/24 08:57:24;;;;;;;6.80;2.98;;;;;;;18.81;48.21;100888.19;1687815;84;20937;-71
2021/05/24 08:59:50;;;;;;;6.45;1.62;;;;;;;18.94;48.27;100883.56;1682897;84;22000;-70
2021/05/24 09:02:16;;;;;;;5.25;2.52;;;;;;;18.94;48.36;100882.73;1695264;84;21042;-70
2021/05/24 09:04:48;;;;;;;3.58;1.52;;;;;;;19.00;48.47;100883.23;1687319;84;21055;-70
2021/05/24 09:07:16;;;;;;;4.45;1.90;;;;;;;18.79;48.43;100881.63;1687883;83;21056;-70
2021/05/24 09:10:03;;;;;;;3.83;1.87;;;;;;;18.58;48.42;100880.52;1695876;83;21692;-70
2021/05/24 09:12:32;;;;;;;4.60;2.02;;;;;;;18.37;48.44;100874.80;1693683;83;21068;-70
2021/05/24 09:15:02;;;;;;;4.17;1.30;;;;;;;18.37;48.52;100886.95;1690069;84;21634;-70
2021/05/24 09:17:42;;;;;;;;;;;;;;;18.43;48.48;100884.80;1691016;84;21104;-70
2021/05/24 09:20:26;;;;;;;3.40;1.40;;;;;;;18.43;48.31;100874.50;1674181;84;20248;-70
2021/05/24 09:23:16;;;;;;;4.25;1.80;;;;;;;18.62;48.32;100871.48;1714903;83;21115;-70
2021/05/24 09:26:09;;;;;;;8.55;3.72;;;;;;;18.65;48.16;100867.00;1686098;83;21063;-70
2021/05/24 09:28:41;;;;;;;4.12;1.57;;;;;;;18.69;48.11;100862.84;1715621;83;21108;-70
2021/05/24 09:31:24;;;;;;;4.37;1.65;;;;;;;18.79;48.17;100860.00;1690689;84;21052;-70
2021/05/24 09:33:53;;;;;;;8.53;3.55;;;;;;;18.85;48.04;100855.13;1693500;83;21044;-70
2021/05/24 09:36:20;;;;;;;4.62;1.70;;;;;;;18.54;47.75;100863.62;1713881;81;21591;-70
2021/05/24 09:38:49;;;;;;;3.35;1.95;;;;;;;18.41;47.82;100865.25;1717110;83;21036;-70
2021/05/24 09:41:19;;;;;;;3.87;2.02;;;;;;;18.36;47.82;100866.41;1711320;83;21179;-70
2021/05/24 09:43:47;;;;;;;;;;;;;;;18.26;47.77;100865.98;1709143;83;21579;-70
2021/05/24 09:46:28;;;;;;;5.37;1.20;;;;;;;18.22;47.81;100855.31;1708128;83;20270;-70
2021/05/24 09:49:04;;;;;;;3.72;1.67;;;;;;;18.35;47.80;100855.30;1709255;83;21631;-70
2021/05/24 09:51:32;;;;;;;6.42;2.70;;;;;;;18.54;47.61;100850.11;1705793;83;21024;-70
2021/05/24 09:54:10;;;;;;;4.30;2.15;;;;;;;18.53;47.41;100849.27;1724361;82;21029;-71
2021/05/24 09:56:43;;;;;;;4.25;1.57;;;;;;;18.61;47.33;100849.58;1712300;83;21739;-70
2021/05/24 09:59:15;;;;;;;2.95;1.72;;;;;;;18.80;47.20;100860.84;1695062;84;21847;-70
2021/05/24 10:01:44;;;;;;;4.00;1.90;;;;;;;18.97;47.13;100845.81;1712995;82;21127;-70
2021/05/24 10:04:12;;;;;;;;;;;;;;;19.20;47.18;100854.26;1690298;84;21090;-70
2021/05/24 10:06:38;;;;;;;2.58;1.62;;;;;;;19.29;47.01;100847.55;1720922;82;20566;-70
2021/05/24 10:09:06;;;;;;;2.30;1.42;;;;;;;19.46;46.97;100838.98;1727879;81;21099;-70
2021/05/24 10:11:32;;;;;;;6.58;2.25;;;;;;;19.39;46.68;100841.66;1684847;83;21101;-70
2021/05/24 10:13:59;;;;;;;3.05;1.90;;;;;;;19.29;46.67;100839.44;1711157;82;21087;-70
2021/05/24 10:16:31;;;;;;;1.42;1.20;;;;;;;19.14;46.47;100839.42;1727772;82;21104;-70
2021/05/24 10:18:54;;;;;;;2.50;1.57;;;;;;;19.12;46.41;100827.45;1726255;83;21289;-70
2021/05/24 10:21:20;;;;;;;2.98;1.67;;;;;;;19.27;46.37;100825.31;1728079;83;21625;-70
2021/05/24 10:23:46;;;;;;;2.55;1.57;;;;;;;19.38;46.24;100825.98;1725182;82;21643;-70
2021/05/24 10:26:12;;;;;;;3.77;1.07;;;;;;;19.51;46.19;100822.91;1728427;83;20941;-71
2021/05/24 10:28:38;;;;;;;5.03;2.40;;;;;;;19.60;46.21;100812.14;1728707;83;21529;-70
2021/05/24 10:31:04;;;;;;;6.85;4.22;;;;;;;19.52;46.17;100813.75;1705797;83;21193;-70
2021/05/24 10:33:40;;;;;;;4.85;2.45;;;;;;;19.61;46.20;100804.31;1728211;82;21592;-70
2021/05/24 10:36:30;;;;;;;2.95;1.10;;;;;;;19.56;45.99;100798.74;1727932;83;21110;-71
2021/05/24 10:39:23;;;;;;;5.67;2.10;;;;;;;19.57;46.04;100800.38;1727664;83;21103;-70
2021/05/24 10:41:53;;;;;;;5.83;1.15;;;;;;;19.35;45.82;100798.54;1728323;82;21584;-70
2021/05/24 10:44:42;;;;;;;5.45;2.85;;;;;;;19.26;45.63;100791.19;1699754;84;21091;-70
2021/05/24 10:47:27;;;;;;;5.08;2.62;;;;;;;19.40;45.70;100787.36;1718131;83;21068;-71
2021/05/24 10:50:05;;;;;;;3.35;1.25;;;;;;;19.46;45.36;100783.52;1709793;83;21087;-71
2021/05/24 10:52:36;;;;;;;5.57;2.30;;;;;;;19.57;45.41;100773.32;1693078;84;21622;-71
2021/05/24 10:55:27;;;;;;;8.53;2.90;;;;;;;19.85;45.41;100779.13;1667877;85;21558;-71
2021/05/24 10:58:05;;;;;;;4.05;2.40;;;;;;;19.87;45.21;100768.94;1713979;83;21133;-70
2021/05/24 11:01:03;;;;;;;4.55;1.07;;;;;;;20.08;45.09;100763.12;1684002;85;21058;-70
2021/05/24 11:03:25;;;;;;;7.55;1.40;;;;;;;20.14;44.79;100764.92;1701455;82;21640;-70
2021/05/24 11:06:17;;;;;;;3.85;1.87;;;;;;;19.84;44.59;100755.84;1711550;83;21100;-71
2021/05/24 11:09:01;;;;;;;3.72;1.70;;;;;;;19.81;44.61;100753.55;1701623;84;21032;-70
2021/05/24 11:11:29;;;;;;;9.53;1.10;;;;;;;19.80;44.38;100747.86;1680358;84;21306;-71
2021/05/24 11:13:59;;;;;;;4.47;1.90;;;;;;;19.83;44.16;100744.70;1716893;82;21964;-71
2021/05/24 11:16:26;;;;;;;3.52;1.37;;;;;;;19.94;44.05;100743.98;1711808;82;21088;-70
2021/05/24 11:19:08;;;;;;;3.00;1.20;;;;;;;19.82;43.70;100740.33;1708840;82;22001;-70
2021/05/24 11:21:34;;;;;;;5.67;2.60;;;;;;;19.59;43.21;100737.42;1702384;82;21013;-70
2021/05/24 11:24:07;;;;;;;2.58;1.22;;;;;;;19.66;43.30;100731.43;1715083;82;21241;-71
2021/05/24 11:26:34;;;;;;;2.77;1.60;;;;;;;19.80;43.25;100731.09;1687718;85;21033;-70
2021/05/24 11:29:07;;;;;;;6.90;2.52;;;;;;;19.97;43.04;100723.23;1682533;83;21238;-70